Pendleton, Kentucky
Current Conditions -  °F | °C
As of 5:53 PM on Wednesday 22 Oct 2014 (Local Time) from KLOU Reporting Station
Clear Clear  
Wind Chill: 60°   Ceiling: Unl
Heat Index: 60°   Visibility: 10mi
Dew Point: 40°   Wind: 5mph
Humidity: 47%   Direction: 10°N
Pressure: 30.24"   Gusts: NA
Location:  38.46°N, 85.3°W
Report Text: KLOU 222153Z 01004KT 10SM CLR 16/04 A3024 RMK AO2 SLP240 T01560044
Loading
Personal Weather Stations






























Interactive Weather Map
Tropical Storm Tracking
New forecast layout! Learn more

10-Day Weather Forecast

Advertisements
Track Severe Weather on mobile